Bilbao Bridge — VRHY6 — position and weather

sailwx.info

Track history (hours):
 
Tides and Currents Weather Stations Pressure Air Temp Water Temp Dewpoint Dewpoint Depression Visibility Wind Speed Wind Dir Waves Ship Positions

Bilbao Bridge

Last reported at 2018-May-25 15:00 UTC. Time now 2018-May-25 14:58 UTC.
Position N 40°23' E 014°15'.

Length 268 m; draft 10.1 m.

Type: Ship (hazmat cat D). MMSI: 477866300.

Date/timePositionNaut miles runAvg speedWind from/ knotsBaromVisibWave heightAir tempDewpointWater temp
2018-May-25 15:00N 40°23' E 014°15'9712.1
2018-May-25 07:02N 39°48' E 012°18'011.7
2018-May-25 07:00N 39°47' E 012°17'612.0
2018-May-25 06:30N 39°45' E 012°10'612.0
2018-May-25 06:00N 39°43' E 012°02'612.2
2018-May-25 05:30N 39°41' E 011°55'1411.9
2018-May-25 04:20N 39°36' E 011°38'411.8
2018-May-25 04:00N 39°34' E 011°34'611.8
2018-May-25 03:30N 39°32' E 011°26'611.8
2018-May-25 03:00N 39°30' E 011°19'2713.5
2018-May-25 01:00N 39°18' E 010°48'7612.7 080 / 101017.010.8 24.022.521.0
2018-May-24 19:00N 38°48' E 009°18'7711.0 070 / 101016.0 5.4 21.017.820.0
2018-May-24 12:00N 38°30' E 007°42'5316.7 240 / 101017.010.8 22.018.919.0
2018-May-24 08:49N 38°16' E 006°37'1018.6
2018-May-24 08:19N 38°13' E 006°25'618.6
2018-May-24 07:58N 38°12' E 006°18'818.2
2018-May-24 07:30N 38°10' E 006°07'918.1
2018-May-24 07:00N 38°07' E 005°56'918.3
2018-May-24 06:30N 38°05' E 005°45'918.5
2018-May-24 06:00N 38°02' E 005°33'918.5
2018-May-24 05:30N 37°60' E 005°22'918.3
2018-May-24 05:00N 37°58' E 005°11'918.3
2018-May-24 04:30N 37°55' E 004°60'918.4
2018-May-24 04:00N 37°53' E 004°48'918.5
2018-May-24 03:30N 37°50' E 004°37'1118.4
2018-May-24 02:54N 37°47' E 004°24'1118.6
2018-May-24 02:20N 37°45' E 004°11'618.6
2018-May-24 02:00N 37°43' E 004°03'31865.5
2018-May-24 02:00N 37°42' E 004°06'1122.9 250 / 151014.0 5.4 20.018.418.0
2018-May-24 01:30N 37°41' E 003°52'917.8
2018-May-24 01:00N 37°38' E 003°41'612.5
2018-May-24 00:30N 37°37' E 003°33'917.7
2018-May-24 00:00N 37°34' E 003°23'918.1
2018-May-23 23:30N 37°32' E 003°12'918.2
2018-May-23 23:00N 37°30' E 003°01'918.4
2018-May-23 22:30N 37°27' E 002°50'1118.7
2018-May-23 21:56N 37°24' E 002°36'818.9
2018-May-23 21:30N 37°22' E 002°27'918.9
2018-May-23 21:00N 37°20' E 002°15'919.0
2018-May-23 20:31N 37°17' E 002°04'918.6
2018-May-23 20:01N 37°15' E 001°53'918.1
2018-May-23 19:31N 37°12' E 001°42'918.0
2018-May-23 19:00N 37°10' E 001°31'917.7
2018-May-23 18:30N 37°08' E 001°20'918.2
2018-May-23 18:00N 37°05' E 001°09'918.6
2018-May-23 17:31N 37°03' E 000°58'918.4
2018-May-23 17:00N 37°00' E 000°47'918.1
2018-May-23 16:30N 36°58' E 000°36'917.7
2018-May-23 16:01N 36°56' E 000°25'918.0
2018-May-23 15:30N 36°54' E 000°14'918.2
2018-May-23 15:00N 36°51' E 000°03'918.1
2018-May-23 14:30N 36°49' W 000°08'918.0
2018-May-23 14:00N 36°46' W 000°19'918.1
2018-May-23 13:30N 36°44' W 000°29'918.0
2018-May-23 13:00N 36°42' W 000°40'918.0
2018-May-23 12:30N 36°40' W 000°51'1018.0
2018-May-23 11:57N 36°37' W 001°03'818.2
2018-May-23 11:30N 36°35' W 001°13'19519.2
2018-May-23 01:20N 36°00' W 005°11'722.2
2018-May-23 01:00N 35°59' W 005°20'917.6
2018-May-23 00:31N 35°56' W 005°31'1515.7
2018-May-22 23:35N 35°54' W 005°48'920.9
2018-May-22 23:09N 35°54' W 005°60'12318.7
2018-May-22 16:35N 35°56' W 008°31'119.5
2018-May-22 16:30N 35°57' W 008°33'1019.6
2018-May-22 16:00N 35°57' W 008°45'2418.5
2018-May-22 14:42N 35°59' W 009°14'419.6
2018-May-22 14:29N 35°59' W 009°20'23718.9
2018-May-22 02:00N 36°54' W 014°06'8020.1 320 / 151014.010.8 18.016.316.0
2018-May-21 22:00N 37°18' W 015°42'34818.3 310 / 191013.010.8 15.011.314.0
2018-May-21 03:00N 38°30' W 022°54'11123.2 350 / 151018.0 5.4 18.016.316.0
2018-May-20 22:14N 38°53' W 025°13'418.9
2018-May-20 22:00N 38°53' W 025°18'1110.4
2018-May-20 21:00N 38°48' W 025°30'2533.5 310 / 261019.010.8 18.014.618.0
2018-May-20 20:14N 38°54' W 026°02'518.9
2018-May-20 19:59N 38°54' W 026°08'1318.7
2018-May-20 19:17N 38°54' W 026°25'518.8
2018-May-20 19:00N 38°54' W 026°31'919.0
2018-May-20 18:31N 38°54' W 026°43'2018.8
2018-May-20 17:28N 38°55' W 027°09'918.9
2018-May-20 17:01N 38°55' W 027°20'918.5
2018-May-20 16:30N 38°55' W 027°32'918.3
2018-May-20 16:00N 38°55' W 027°43'918.6
2018-May-20 15:30N 38°55' W 027°55'1018.9
2018-May-20 15:00N 38°56' W 028°07'918.7
2018-May-20 14:30N 38°57' W 028°19'918.5
2018-May-20 14:00N 38°58' W 028°31'918.0
2018-May-20 13:31N 38°58' W 028°43'918.1
2018-May-20 13:00N 38°58' W 028°54'917.9
2018-May-20 12:30N 38°59' W 029°06'917.7
2018-May-20 12:00N 38°59' W 029°17'918.2
2018-May-20 11:30N 38°59' W 029°29'918.2
2018-May-20 11:00N 38°59' W 029°41'918.1
2018-May-20 10:30N 38°60' W 029°52'918.3
2018-May-20 10:00N 39°00' W 030°04'918.2
2018-May-20 09:30N 39°00' W 030°16'918.2
2018-May-20 09:00N 39°00' W 030°28'1218.4
2018-May-20 08:21N 39°01' W 030°43'2618.3
2018-May-20 06:56N 39°01' W 031°16'6215.7
2018-May-20 03:00N 39°00' W 032°36'11222.4 350 / 201018.010.8 22.020.521.0
2018-May-19 22:00N 39°00' W 035°00'12117.3 320 / 241020.010.8 18.014.620.0
2018-May-19 15:00N 39°00' W 037°36'20120.1 260 / 181021.010.8 24.021.021.0
2018-May-19 05:00N 38°54' W 041°54'11823.5 260 / 161024.010.8 24.022.521.0
2018-May-19 00:00N 38°42' W 044°24'14220.3 240 / 191023.010.8 23.019.921.0
2018-May-18 17:00N 38°24' W 047°24'24021.8 250 / 151024.010.8 26.023.121.0
2018-May-18 06:00N 37°42' W 052°24'14120.2 250 / 161024.010.8 24.022.523.0
2018-May-17 23:00N 37°12' W 055°18'16432.8 240 / 141025.010.8 25.022.022.0
2018-May-17 18:00N 36°30' W 058°36'17814.8 250 / 151020.010.8 25.023.523.0
2018-May-17 06:00N 35°36' W 062°06'13719.6 270 / 151018.010.8 26.023.123.0
2018-May-16 23:00N 35°00' W 064°48'   220 / 81024.0 25.022.0
Track history (hours):
 
Tides and Currents Weather Stations Pressure Air Temp Water Temp Dewpoint Dewpoint Depression Visibility Wind Speed Wind Dir Waves Ship Positions

Bilbao Bridge

Last reported at 2018-May-25 15:00 UTC. Time now 2018-May-25 14:58 UTC.
Position N 40°23' E 014°15'.

Length 268 m; draft 10.1 m.

Type: Ship (hazmat cat D). MMSI: 477866300.

Date/timePositionNaut miles runAvg speedWind from/ knotsBaromVisibWave heightAir tempDewpointWater temp
2018-May-25 15:00N 40°23' E 014°15'9712.1
2018-May-25 07:02N 39°48' E 012°18'011.7
2018-May-25 07:00N 39°47' E 012°17'612.0
2018-May-25 06:30N 39°45' E 012°10'612.0
2018-May-25 06:00N 39°43' E 012°02'612.2
2018-May-25 05:30N 39°41' E 011°55'1411.9
2018-May-25 04:20N 39°36' E 011°38'411.8
2018-May-25 04:00N 39°34' E 011°34'611.8
2018-May-25 03:30N 39°32' E 011°26'611.8
2018-May-25 03:00N 39°30' E 011°19'2713.5
2018-May-25 01:00N 39°18' E 010°48'7612.7 080 / 101017.010.8 24.022.521.0
2018-May-24 19:00N 38°48' E 009°18'7711.0 070 / 101016.0 5.4 21.017.820.0
2018-May-24 12:00N 38°30' E 007°42'5316.7 240 / 101017.010.8 22.018.919.0
2018-May-24 08:49N 38°16' E 006°37'1018.6
2018-May-24 08:19N 38°13' E 006°25'618.6
2018-May-24 07:58N 38°12' E 006°18'818.2
2018-May-24 07:30N 38°10' E 006°07'918.1
2018-May-24 07:00N 38°07' E 005°56'918.3
2018-May-24 06:30N 38°05' E 005°45'918.5
2018-May-24 06:00N 38°02' E 005°33'918.5
2018-May-24 05:30N 37°60' E 005°22'918.3
2018-May-24 05:00N 37°58' E 005°11'918.3
2018-May-24 04:30N 37°55' E 004°60'918.4
2018-May-24 04:00N 37°53' E 004°48'918.5
2018-May-24 03:30N 37°50' E 004°37'1118.4
2018-May-24 02:54N 37°47' E 004°24'1118.6
2018-May-24 02:20N 37°45' E 004°11'618.6
2018-May-24 02:00N 37°43' E 004°03'31865.5
2018-May-24 02:00N 37°42' E 004°06'1122.9 250 / 151014.0 5.4 20.018.418.0
2018-May-24 01:30N 37°41' E 003°52'917.8
2018-May-24 01:00N 37°38' E 003°41'612.5
2018-May-24 00:30N 37°37' E 003°33'917.7
2018-May-24 00:00N 37°34' E 003°23'918.1
2018-May-23 23:30N 37°32' E 003°12'918.2
2018-May-23 23:00N 37°30' E 003°01'918.4
2018-May-23 22:30N 37°27' E 002°50'1118.7
2018-May-23 21:56N 37°24' E 002°36'818.9
2018-May-23 21:30N 37°22' E 002°27'918.9
2018-May-23 21:00N 37°20' E 002°15'919.0
2018-May-23 20:31N 37°17' E 002°04'918.6
2018-May-23 20:01N 37°15' E 001°53'918.1
2018-May-23 19:31N 37°12' E 001°42'918.0
2018-May-23 19:00N 37°10' E 001°31'917.7
2018-May-23 18:30N 37°08' E 001°20'918.2
2018-May-23 18:00N 37°05' E 001°09'918.6
2018-May-23 17:31N 37°03' E 000°58'918.4
2018-May-23 17:00N 37°00' E 000°47'918.1
2018-May-23 16:30N 36°58' E 000°36'917.7
2018-May-23 16:01N 36°56' E 000°25'918.0
2018-May-23 15:30N 36°54' E 000°14'918.2
2018-May-23 15:00N 36°51' E 000°03'918.1
2018-May-23 14:30N 36°49' W 000°08'918.0
2018-May-23 14:00N 36°46' W 000°19'918.1
2018-May-23 13:30N 36°44' W 000°29'918.0
2018-May-23 13:00N 36°42' W 000°40'918.0
2018-May-23 12:30N 36°40' W 000°51'1018.0
2018-May-23 11:57N 36°37' W 001°03'818.2
2018-May-23 11:30N 36°35' W 001°13'19519.2
2018-May-23 01:20N 36°00' W 005°11'722.2
2018-May-23 01:00N 35°59' W 005°20'917.6
2018-May-23 00:31N 35°56' W 005°31'1515.7
2018-May-22 23:35N 35°54' W 005°48'920.9
2018-May-22 23:09N 35°54' W 005°60'12318.7
2018-May-22 16:35N 35°56' W 008°31'119.5
2018-May-22 16:30N 35°57' W 008°33'1019.6
2018-May-22 16:00N 35°57' W 008°45'2418.5
2018-May-22 14:42N 35°59' W 009°14'419.6
2018-May-22 14:29N 35°59' W 009°20'23718.9
2018-May-22 02:00N 36°54' W 014°06'8020.1 320 / 151014.010.8 18.016.316.0
2018-May-21 22:00N 37°18' W 015°42'34818.3 310 / 191013.010.8 15.011.314.0
2018-May-21 03:00N 38°30' W 022°54'11123.2 350 / 151018.0 5.4 18.016.316.0
2018-May-20 22:14N 38°53' W 025°13'418.9
2018-May-20 22:00N 38°53' W 025°18'1110.4
2018-May-20 21:00N 38°48' W 025°30'2533.5 310 / 261019.010.8 18.014.618.0
2018-May-20 20:14N 38°54' W 026°02'518.9
2018-May-20 19:59N 38°54' W 026°08'1318.7
2018-May-20 19:17N 38°54' W 026°25'518.8
2018-May-20 19:00N 38°54' W 026°31'919.0
2018-May-20 18:31N 38°54' W 026°43'2018.8
2018-May-20 17:28N 38°55' W 027°09'918.9
2018-May-20 17:01N 38°55' W 027°20'918.5
2018-May-20 16:30N 38°55' W 027°32'918.3
2018-May-20 16:00N 38°55' W 027°43'918.6
2018-May-20 15:30N 38°55' W 027°55'1018.9
2018-May-20 15:00N 38°56' W 028°07'918.7
2018-May-20 14:30N 38°57' W 028°19'918.5
2018-May-20 14:00N 38°58' W 028°31'918.0
2018-May-20 13:31N 38°58' W 028°43'918.1
2018-May-20 13:00N 38°58' W 028°54'917.9
2018-May-20 12:30N 38°59' W 029°06'917.7
2018-May-20 12:00N 38°59' W 029°17'918.2
2018-May-20 11:30N 38°59' W 029°29'918.2
2018-May-20 11:00N 38°59' W 029°41'918.1
2018-May-20 10:30N 38°60' W 029°52'918.3
2018-May-20 10:00N 39°00' W 030°04'918.2
2018-May-20 09:30N 39°00' W 030°16'918.2
2018-May-20 09:00N 39°00' W 030°28'1218.4
2018-May-20 08:21N 39°01' W 030°43'2618.3
2018-May-20 06:56N 39°01' W 031°16'6215.7
2018-May-20 03:00N 39°00' W 032°36'11222.4 350 / 201018.010.8 22.020.521.0
2018-May-19 22:00N 39°00' W 035°00'12117.3 320 / 241020.010.8 18.014.620.0
2018-May-19 15:00N 39°00' W 037°36'20120.1 260 / 181021.010.8 24.021.021.0
2018-May-19 05:00N 38°54' W 041°54'11823.5 260 / 161024.010.8 24.022.521.0
2018-May-19 00:00N 38°42' W 044°24'14220.3 240 / 191023.010.8 23.019.921.0
2018-May-18 17:00N 38°24' W 047°24'24021.8 250 / 151024.010.8 26.023.121.0
2018-May-18 06:00N 37°42' W 052°24'14120.2 250 / 161024.010.8 24.022.523.0
2018-May-17 23:00N 37°12' W 055°18'16432.8 240 / 141025.010.8 25.022.022.0
2018-May-17 18:00N 36°30' W 058°36'17814.8 250 / 151020.010.8 25.023.523.0
2018-May-17 06:00N 35°36' W 062°06'13719.6 270 / 151018.010.8 26.023.123.0
2018-May-16 23:00N 35°00' W 064°48'   220 / 81024.0 25.022.0

Dump ship's entire track history